sensor_id;sensor_type;location;lat;lon;timestamp;pressure;altitude;pressure_sealevel;temperature;humidity
79527;BME280;68974;47.754;-3.364;2023-04-12T00:00:53;100405.16;;;9.15;79.73
79527;BME280;68974;47.754;-3.364;2023-04-12T00:03:19;100384.94;;;9.01;80.37
79527;BME280;68974;47.754;-3.364;2023-04-12T00:05:46;100390.41;;;9.01;80.30
79527;BME280;68974;47.754;-3.364;2023-04-12T00:08:13;100393.41;;;9.04;80.15
79527;BME280;68974;47.754;-3.364;2023-04-12T00:10:38;100400.31;;;8.92;79.87
79527;BME280;68974;47.754;-3.364;2023-04-12T00:13:04;100418.91;;;8.95;79.25
79527;BME280;68974;47.754;-3.364;2023-04-12T00:15:29;100417.59;;;8.82;81.04
79527;BME280;68974;47.754;-3.364;2023-04-12T00:17:55;100422.25;;;8.82;81.30
79527;BME280;68974;47.754;-3.364;2023-04-12T00:20:20;100410.19;;;8.78;81.68
79527;BME280;68974;47.754;-3.364;2023-04-12T00:22:46;100394.84;;;8.82;81.14
79527;BME280;68974;47.754;-3.364;2023-04-12T00:25:11;100379.50;;;8.86;81.34
79527;BME280;68974;47.754;-3.364;2023-04-12T00:27:37;100366.09;;;8.89;81.23
79527;BME280;68974;47.754;-3.364;2023-04-12T00:30:03;100375.09;;;8.85;80.52
79527;BME280;68974;47.754;-3.364;2023-04-12T00:32:29;100389.97;;;8.58;81.00
79527;BME280;68974;47.754;-3.364;2023-04-12T00:34:54;100380.59;;;8.80;80.06
79527;BME280;68974;47.754;-3.364;2023-04-12T00:37:19;100376.78;;;8.70;80.58
79527;BME280;68974;47.754;-3.364;2023-04-12T00:39:45;100381.44;;;8.70;81.23
79527;BME280;68974;47.754;-3.364;2023-04-12T00:42:10;100380.56;;;8.90;81.17
79527;BME280;68974;47.754;-3.364;2023-04-12T00:44:36;100375.09;;;8.90;80.85
79527;BME280;68974;47.754;-3.364;2023-04-12T00:47:05;100374.31;;;8.89;81.29
79527;BME280;68974;47.754;-3.364;2023-04-12T00:49:32;100385.50;;;8.93;81.74
79527;BME280;68974;47.754;-3.364;2023-04-12T00:52:03;100384.41;;;8.99;82.00
79527;BME280;68974;47.754;-3.364;2023-04-12T00:54:30;100383.91;;;8.77;80.10
79527;BME280;68974;47.754;-3.364;2023-04-12T00:56:57;100380.88;;;8.88;81.80
79527;BME280;68974;47.754;-3.364;2023-04-12T00:59:23;100380.28;;;8.96;80.52
79527;BME280;68974;47.754;-3.364;2023-04-12T01:01:48;100386.06;;;8.90;79.65
79527;BME280;68974;47.754;-3.364;2023-04-12T01:04:14;100381.72;;;8.84;81.28
79527;BME280;68974;47.754;-3.364;2023-04-12T01:12:24;100385.78;;;8.86;81.71
79527;BME280;68974;47.754;-3.364;2023-04-12T01:15:01;100382.19;;;9.01;80.35
79527;BME280;68974;47.754;-3.364;2023-04-12T01:17:31;100377.06;;;8.84;82.14
79527;BME280;68974;47.754;-3.364;2023-04-12T01:20:08;100390.22;;;8.72;80.36
79527;BME280;68974;47.754;-3.364;2023-04-12T01:27:56;100422.00;;;8.68;83.11
79527;BME280;68974;47.754;-3.364;2023-04-12T01:30:26;100441.72;;;8.60;82.88
79527;BME280;68974;47.754;-3.364;2023-04-12T01:32:53;100452.94;;;8.74;83.33
79527;BME280;68974;47.754;-3.364;2023-04-12T01:35:23;100460.06;;;8.64;83.54
79527;BME280;68974;47.754;-3.364;2023-04-12T01:37:51;100443.06;;;8.88;82.75
79527;BME280;68974;47.754;-3.364;2023-04-12T01:40:17;100440.56;;;8.96;81.76
79527;BME280;68974;47.754;-3.364;2023-04-12T01:42:43;100441.97;;;8.79;82.94
79527;BME280;68974;47.754;-3.364;2023-04-12T01:45:08;100437.03;;;8.81;82.74
79527;BME280;68974;47.754;-3.364;2023-04-12T01:47:34;100434.84;;;8.83;82.84
79527;BME280;68974;47.754;-3.364;2023-04-12T01:50:18;100433.78;;;8.68;83.18
79527;BME280;68974;47.754;-3.364;2023-04-12T01:52:56;100440.34;;;8.67;82.55
79527;BME280;68974;47.754;-3.364;2023-04-12T01:55:28;100436.53;;;8.63;82.64
79527;BME280;68974;47.754;-3.364;2023-04-12T01:57:54;100458.94;;;8.60;82.85
79527;BME280;68974;47.754;-3.364;2023-04-12T02:00:21;100448.00;;;8.60;82.99
79527;BME280;68974;47.754;-3.364;2023-04-12T02:02:47;100437.63;;;8.57;82.40
79527;BME280;68974;47.754;-3.364;2023-04-12T02:05:12;100446.91;;;8.56;82.89
79527;BME280;68974;47.754;-3.364;2023-04-12T02:07:38;100432.69;;;8.54;82.18
79527;BME280;68974;47.754;-3.364;2023-04-12T02:10:05;100418.19;;;8.49;82.13
79527;BME280;68974;47.754;-3.364;2023-04-12T02:12:30;100411.88;;;8.63;82.34
79527;BME280;68974;47.754;-3.364;2023-04-12T02:14:56;100420.91;;;8.59;81.64
79527;BME280;68974;47.754;-3.364;2023-04-12T02:17:22;100417.88;;;8.60;82.54
79527;BME280;68974;47.754;-3.364;2023-04-12T02:19:47;100394.66;;;8.48;82.46
79527;BME280;68974;47.754;-3.364;2023-04-12T02:22:13;100398.22;;;8.43;82.70
79527;BME280;68974;47.754;-3.364;2023-04-12T02:24:38;100384.78;;;8.42;83.11
79527;BME280;68974;47.754;-3.364;2023-04-12T02:27:04;100395.44;;;8.63;83.11
79527;BME280;68974;47.754;-3.364;2023-04-12T02:29:30;100387.50;;;8.62;81.39
79527;BME280;68974;47.754;-3.364;2023-04-12T02:31:55;100384.78;;;8.52;82.25
79527;BME280;68974;47.754;-3.364;2023-04-12T02:34:21;100380.09;;;8.62;82.05
79527;BME280;68974;47.754;-3.364;2023-04-12T02:36:47;100392.97;;;8.62;82.35
79527;BME280;68974;47.754;-3.364;2023-04-12T02:39:13;100395.19;;;8.55;81.39
79527;BME280;68974;47.754;-3.364;2023-04-12T02:41:38;100397.13;;;8.49;82.72
79527;BME280;68974;47.754;-3.364;2023-04-12T02:44:04;100391.63;;;8.59;83.10
79527;BME280;68974;47.754;-3.364;2023-04-12T02:46:29;100408.06;;;8.59;82.80
79527;BME280;68974;47.754;-3.364;2023-04-12T02:48:55;100414.06;;;8.46;82.40
79527;BME280;68974;47.754;-3.364;2023-04-12T02:51:20;100430.50;;;8.46;82.43
79527;BME280;68974;47.754;-3.364;2023-04-12T02:53:46;100432.13;;;8.37;82.89
79527;BME280;68974;47.754;-3.364;2023-04-12T02:56:11;100430.47;;;8.26;82.84
79527;BME280;68974;47.754;-3.364;2023-04-12T02:58:37;100428.59;;;8.32;82.98
79527;BME280;68974;47.754;-3.364;2023-04-12T03:01:03;100439.78;;;8.25;83.27
79527;BME280;68974;47.754;-3.364;2023-04-12T03:03:32;100442.56;;;8.30;83.30
79527;BME280;68974;47.754;-3.364;2023-04-12T03:05:58;100433.78;;;8.38;83.10
79527;BME280;68974;47.754;-3.364;2023-04-12T03:08:24;100434.88;;;8.37;83.12
79527;BME280;68974;47.754;-3.364;2023-04-12T03:10:49;100439.53;;;8.47;82.15
79527;BME280;68974;47.754;-3.364;2023-04-12T03:13:15;100446.66;;;8.53;81.99
79527;BME280;68974;47.754;-3.364;2023-04-12T03:15:40;100435.69;;;8.43;81.88
79527;BME280;68974;47.754;-3.364;2023-04-12T03:18:08;100442.00;;;8.33;82.00
79527;BME280;68974;47.754;-3.364;2023-04-12T03:20:33;100426.13;;;8.35;82.43
79527;BME280;68974;47.754;-3.364;2023-04-12T03:22:59;100417.94;;;8.35;82.41
79527;BME280;68974;47.754;-3.364;2023-04-12T03:25:25;100418.41;;;8.22;82.62
79527;BME280;68974;47.754;-3.364;2023-04-12T03:27:51;100423.38;;;8.15;82.91
79527;BME280;68974;47.754;-3.364;2023-04-12T03:30:16;100422.28;;;8.11;83.90
79527;BME280;68974;47.754;-3.364;2023-04-12T03:32:42;100428.25;;;8.08;82.54
79527;BME280;68974;47.754;-3.364;2023-04-12T03:35:09;100417.88;;;8.05;83.37
79527;BME280;68974;47.754;-3.364;2023-04-12T03:37:34;100420.63;;;8.20;83.62
79527;BME280;68974;47.754;-3.364;2023-04-12T03:40:00;100425.81;;;8.16;84.30
79527;BME280;68974;47.754;-3.364;2023-04-12T03:42:27;100418.97;;;8.19;84.08
79527;BME280;68974;47.754;-3.364;2023-04-12T03:44:53;100414.06;;;8.06;84.39
79527;BME280;68974;47.754;-3.364;2023-04-12T03:47:19;100428.53;;;8.16;84.32
79527;BME280;68974;47.754;-3.364;2023-04-12T03:49:46;100426.91;;;8.10;84.48
79527;BME280;68974;47.754;-3.364;2023-04-12T03:52:11;100432.09;;;8.07;83.87
79527;BME280;68974;47.754;-3.364;2023-04-12T03:54:37;100434.03;;;8.01;83.77
79527;BME280;68974;47.754;-3.364;2023-04-12T03:57:02;100423.88;;;8.02;84.12
79527;BME280;68974;47.754;-3.364;2023-04-12T03:59:28;100427.72;;;7.91;83.74
79527;BME280;68974;47.754;-3.364;2023-04-12T04:01:55;100419.50;;;7.86;84.94
79527;BME280;68974;47.754;-3.364;2023-04-12T04:04:21;100421.16;;;7.87;84.58
79527;BME280;68974;47.754;-3.364;2023-04-12T04:06:46;100413.19;;;7.85;84.94
79527;BME280;68974;47.754;-3.364;2023-04-12T04:09:13;100406.34;;;7.77;84.63
79527;BME280;68974;47.754;-3.364;2023-04-12T04:11:39;100404.97;;;7.70;84.35
79527;BME280;68974;47.754;-3.364;2023-04-12T04:14:04;100389.38;;;7.60;84.12
79527;BME280;68974;47.754;-3.364;2023-04-12T04:16:29;100399.22;;;7.66;84.20
79527;BME280;68974;47.754;-3.364;2023-04-12T04:18:55;100404.16;;;7.69;84.64
79527;BME280;68974;47.754;-3.364;2023-04-12T04:21:21;100397.84;;;7.64;84.37
79527;BME280;68974;47.754;-3.364;2023-04-12T04:23:46;100407.94;;;7.58;84.89
79527;BME280;68974;47.754;-3.364;2023-04-12T04:26:12;100409.03;;;7.52;85.23
79527;BME280;68974;47.754;-3.364;2023-04-12T04:28:41;100408.50;;;7.55;84.97
79527;BME280;68974;47.754;-3.364;2023-04-12T04:31:10;100414.50;;;7.52;84.84
79527;BME280;68974;47.754;-3.364;2023-04-12T04:33:36;100409.06;;;7.57;84.50
79527;BME280;68974;47.754;-3.364;2023-04-12T04:36:02;100409.31;;;7.61;84.32
79527;BME280;68974;47.754;-3.364;2023-04-12T04:38:28;100407.13;;;7.58;84.84
79527;BME280;68974;47.754;-3.364;2023-04-12T04:40:57;100401.94;;;7.61;84.70
79527;BME280;68974;47.754;-3.364;2023-04-12T04:43:24;100407.44;;;7.66;84.88
79527;BME280;68974;47.754;-3.364;2023-04-12T04:45:53;100416.19;;;7.83;85.05
79527;BME280;68974;47.754;-3.364;2023-04-12T04:48:19;100421.69;;;7.94;84.85
79527;BME280;68974;47.754;-3.364;2023-04-12T04:50:45;100417.63;;;8.01;84.62
79527;BME280;68974;47.754;-3.364;2023-04-12T04:53:11;100419.78;;;8.04;84.25
79527;BME280;68974;47.754;-3.364;2023-04-12T04:55:37;100426.38;;;8.18;84.02
79527;BME280;68974;47.754;-3.364;2023-04-12T04:58:03;100432.09;;;8.22;84.00
79527;BME280;68974;47.754;-3.364;2023-04-12T05:00:30;100435.94;;;8.26;82.93
79527;BME280;68974;47.754;-3.364;2023-04-12T05:02:55;100457.28;;;8.29;82.78
79527;BME280;68974;47.754;-3.364;2023-04-12T05:05:21;100461.13;;;8.28;82.99
79527;BME280;68974;47.754;-3.364;2023-04-12T05:07:50;100446.34;;;8.29;82.23
79527;BME280;68974;47.754;-3.364;2023-04-12T05:10:15;100440.59;;;8.25;80.82
79527;BME280;68974;47.754;-3.364;2023-04-12T05:12:40;100450.16;;;8.13;81.68
79527;BME280;68974;47.754;-3.364;2023-04-12T05:15:06;100444.69;;;8.13;80.62
79527;BME280;68974;47.754;-3.364;2023-04-12T05:17:33;100433.19;;;8.01;81.39
79527;BME280;68974;47.754;-3.364;2023-04-12T05:19:59;100444.16;;;8.11;81.90
79527;BME280;68974;47.754;-3.364;2023-04-12T05:22:25;100442.50;;;8.10;82.29
79527;BME280;68974;47.754;-3.364;2023-04-12T05:24:53;100441.44;;;8.16;81.94
79527;BME280;68974;47.754;-3.364;2023-04-12T05:27:20;100443.59;;;8.19;81.91
79527;BME280;68974;47.754;-3.364;2023-04-12T05:29:46;100450.72;;;8.20;81.83
79527;BME280;68974;47.754;-3.364;2023-04-12T05:32:12;100451.53;;;8.00;82.61
79527;BME280;68974;47.754;-3.364;2023-04-12T05:34:37;100460.56;;;8.06;82.98
79527;BME280;68974;47.754;-3.364;2023-04-12T05:37:03;100460.00;;;8.14;82.29
79527;BME280;68974;47.754;-3.364;2023-04-12T05:39:29;100456.72;;;8.22;82.27
79527;BME280;68974;47.754;-3.364;2023-04-12T05:41:55;100456.72;;;8.12;82.23
79527;BME280;68974;47.754;-3.364;2023-04-12T05:44:20;100465.47;;;8.04;82.17
79527;BME280;68974;47.754;-3.364;2023-04-12T05:46:46;100460.84;;;8.14;81.71
79527;BME280;68974;47.754;-3.364;2023-04-12T05:49:11;100466.03;;;8.11;81.53
79527;BME280;68974;47.754;-3.364;2023-04-12T05:51:36;100464.91;;;8.07;81.55
79527;BME280;68974;47.754;-3.364;2023-04-12T05:54:02;100458.91;;;8.10;81.97
79527;BME280;68974;47.754;-3.364;2023-04-12T05:56:30;100457.81;;;8.06;83.24
79527;BME280;68974;47.754;-3.364;2023-04-12T05:58:56;100456.19;;;8.05;82.95
79527;BME280;68974;47.754;-3.364;2023-04-12T06:01:22;100449.63;;;8.11;83.46
79527;BME280;68974;47.754;-3.364;2023-04-12T06:03:48;100443.34;;;8.15;84.17
79527;BME280;68974;47.754;-3.364;2023-04-12T06:06:15;100453.16;;;8.16;83.56
79527;BME280;68974;47.754;-3.364;2023-04-12T06:08:40;100441.13;;;8.22;81.27
79527;BME280;68974;47.754;-3.364;2023-04-12T06:11:06;100438.13;;;8.24;81.81
79527;BME280;68974;47.754;-3.364;2023-04-12T06:13:34;100443.59;;;8.24;82.77
79527;BME280;68974;47.754;-3.364;2023-04-12T06:16:00;100440.88;;;8.24;82.05
79527;BME280;68974;47.754;-3.364;2023-04-12T06:18:25;100433.22;;;8.31;81.58
79527;BME280;68974;47.754;-3.364;2023-04-12T06:20:50;100460.28;;;8.27;81.32
79527;BME280;68974;47.754;-3.364;2023-04-12T06:23:16;100458.66;;;8.26;81.70
79527;BME280;68974;47.754;-3.364;2023-04-12T06:25:43;100456.78;;;8.37;82.21
79527;BME280;68974;47.754;-3.364;2023-04-12T06:28:08;100488.47;;;8.28;81.82
79527;BME280;68974;47.754;-3.364;2023-04-12T06:30:34;100485.75;;;8.23;77.66
79527;BME280;68974;47.754;-3.364;2023-04-12T06:33:00;100500.47;;;8.07;76.82
79527;BME280;68974;47.754;-3.364;2023-04-12T06:35:25;100488.44;;;7.98;75.51
79527;BME280;68974;47.754;-3.364;2023-04-12T06:37:50;100490.03;;;7.89;74.20
79527;BME280;68974;47.754;-3.364;2023-04-12T06:40:16;100479.09;;;7.83;74.58
79527;BME280;68974;47.754;-3.364;2023-04-12T06:42:41;100488.38;;;7.82;76.16
79527;BME280;68974;47.754;-3.364;2023-04-12T06:45:07;100492.22;;;7.76;75.46
79527;BME280;68974;47.754;-3.364;2023-04-12T06:47:33;100488.91;;;7.74;74.24
79527;BME280;68974;47.754;-3.364;2023-04-12T06:49:58;100492.72;;;7.73;75.25
79527;BME280;68974;47.754;-3.364;2023-04-12T06:52:24;100491.59;;;7.59;74.37
79527;BME280;68974;47.754;-3.364;2023-04-12T06:54:52;100503.97;;;7.72;75.19
79527;BME280;68974;47.754;-3.364;2023-04-12T06:57:18;100508.13;;;8.00;74.34
79527;BME280;68974;47.754;-3.364;2023-04-12T06:59:44;100508.38;;;7.93;73.43
79527;BME280;68974;47.754;-3.364;2023-04-12T07:02:09;100503.81;;;8.19;74.18
79527;BME280;68974;47.754;-3.364;2023-04-12T07:04:35;100497.25;;;8.25;72.55
79527;BME280;68974;47.754;-3.364;2023-04-12T07:07:00;100496.16;;;8.16;73.56
79527;BME280;68974;47.754;-3.364;2023-04-12T07:09:26;100494.50;;;8.25;73.29
79527;BME280;68974;47.754;-3.364;2023-04-12T07:11:51;100503.28;;;8.32;72.46
79527;BME280;68974;47.754;-3.364;2023-04-12T07:14:17;100496.50;;;8.60;78.63
79527;BME280;68974;47.754;-3.364;2023-04-12T07:16:42;100498.94;;;8.61;72.31
79527;BME280;68974;47.754;-3.364;2023-04-12T07:19:08;100494.53;;;8.60;71.63
79527;BME280;68974;47.754;-3.364;2023-04-12T07:21:33;100498.09;;;8.56;71.54
79527;BME280;68974;47.754;-3.364;2023-04-12T07:23:58;100503.88;;;8.64;71.67
79527;BME280;68974;47.754;-3.364;2023-04-12T07:26:24;100509.88;;;8.72;72.98
79527;BME280;68974;47.754;-3.364;2023-04-12T07:28:50;100502.75;;;8.81;70.64
79527;BME280;68974;47.754;-3.364;2023-04-12T07:31:16;100507.13;;;8.92;69.84
79527;BME280;68974;47.754;-3.364;2023-04-12T07:33:41;100504.09;;;9.08;69.95
79527;BME280;68974;47.754;-3.364;2023-04-12T07:36:07;100497.81;;;9.08;70.67
79527;BME280;68974;47.754;-3.364;2023-04-12T07:38:32;100496.13;;;9.17;68.82
79527;BME280;68974;47.754;-3.364;2023-04-12T07:40:58;100509.25;;;9.30;67.78
79527;BME280;68974;47.754;-3.364;2023-04-12T07:43:23;100510.00;;;9.56;67.62
79527;BME280;68974;47.754;-3.364;2023-04-12T07:45:49;100519.19;;;9.85;67.03
79527;BME280;68974;47.754;-3.364;2023-04-12T07:48:16;100516.00;;;9.58;67.51
79527;BME280;68974;47.754;-3.364;2023-04-12T07:50:41;100542.16;;;9.25;71.24
79527;BME280;68974;47.754;-3.364;2023-04-12T07:53:21;100551.78;;;8.97;74.32
79527;BME280;68974;47.754;-3.364;2023-04-12T07:55:47;100557.81;;;8.84;74.75
79527;BME280;68974;47.754;-3.364;2023-04-12T07:58:13;100560.81;;;8.73;75.35
79527;BME280;68974;47.754;-3.364;2023-04-12T08:00:38;100549.59;;;8.59;73.67
79527;BME280;68974;47.754;-3.364;2023-04-12T08:03:04;100539.16;;;8.56;74.19
79527;BME280;68974;47.754;-3.364;2023-04-12T08:05:29;100548.19;;;8.46;72.62
79527;BME280;68974;47.754;-3.364;2023-04-12T08:07:55;100541.09;;;8.45;75.86
79527;BME280;68974;47.754;-3.364;2023-04-12T08:10:20;100538.75;;;9.64;70.48
79527;BME280;68974;47.754;-3.364;2023-04-12T08:12:45;100521.59;;;10.46;66.46
79527;BME280;68974;47.754;-3.364;2023-04-12T08:15:12;100528.81;;;11.34;65.15
79527;BME280;68974;47.754;-3.364;2023-04-12T08:17:37;100517.94;;;12.13;61.57
79527;BME280;68974;47.754;-3.364;2023-04-12T08:20:03;100514.81;;;12.39;60.99
79527;BME280;68974;47.754;-3.364;2023-04-12T08:22:29;100511.47;;;12.93;58.60
79527;BME280;68974;47.754;-3.364;2023-04-12T08:24:54;100507.84;;;13.11;56.72
79527;BME280;68974;47.754;-3.364;2023-04-12T08:27:20;100522.72;;;14.33;54.94
79527;BME280;68974;47.754;-3.364;2023-04-12T08:29:45;100517.59;;;14.98;53.93
79527;BME280;68974;47.754;-3.364;2023-04-12T08:32:11;100518.66;;;14.89;53.35
79527;BME280;68974;47.754;-3.364;2023-04-12T08:34:37;100541.72;;;13.99;55.89
79527;BME280;68974;47.754;-3.364;2023-04-12T08:37:02;100525.63;;;12.17;60.56
79527;BME280;68974;47.754;-3.364;2023-04-12T08:39:30;100536.84;;;10.96;64.93
79527;BME280;68974;47.754;-3.364;2023-04-12T08:41:55;100548.34;;;10.30;66.88
79527;BME280;68974;47.754;-3.364;2023-04-12T08:44:33;100545.00;;;9.84;68.67
79527;BME280;68974;47.754;-3.364;2023-04-12T08:47:01;100545.88;;;9.65;69.76
79527;BME280;68974;47.754;-3.364;2023-04-12T08:49:27;100536.72;;;10.43;68.96
79527;BME280;68974;47.754;-3.364;2023-04-12T08:51:53;100537.22;;;12.13;64.49
79527;BME280;68974;47.754;-3.364;2023-04-12T08:54:19;100529.84;;;12.65;61.79
79527;BME280;68974;47.754;-3.364;2023-04-12T08:56:45;100532.25;;;12.85;60.31
79527;BME280;68974;47.754;-3.364;2023-04-12T08:59:12;100533.75;;;13.83;57.44
79527;BME280;68974;47.754;-3.364;2023-04-12T09:01:40;100520.53;;;14.21;54.35
79527;BME280;68974;47.754;-3.364;2023-04-12T09:04:06;100524.59;;;14.24;52.19
79527;BME280;68974;47.754;-3.364;2023-04-12T09:06:32;100521.53;;;14.39;49.72
79527;BME280;68974;47.754;-3.364;2023-04-12T09:08:58;100515.34;;;14.42;49.01
79527;BME280;68974;47.754;-3.364;2023-04-12T09:11:30;100536.63;;;13.78;50.98
79527;BME280;68974;47.754;-3.364;2023-04-12T09:13:57;100529.97;;;12.74;53.80
79527;BME280;68974;47.754;-3.364;2023-04-12T09:19:00;100541.31;;;11.45;53.82
79527;BME280;68974;47.754;-3.364;2023-04-12T09:21:27;100531.91;;;11.98;52.56
79527;BME280;68974;47.754;-3.364;2023-04-12T09:24:05;100532.38;;;12.24;53.41
79527;BME280;68974;47.754;-3.364;2023-04-12T09:26:36;100543.47;;;11.77;53.79
79527;BME280;68974;47.754;-3.364;2023-04-12T09:29:03;100530.00;;;11.75;51.07
79527;BME280;68974;47.754;-3.364;2023-04-12T09:31:29;100534.06;;;12.76;49.00
79527;BME280;68974;47.754;-3.364;2023-04-12T09:34:07;100527.94;;;13.58;47.86
79527;BME280;68974;47.754;-3.364;2023-04-12T09:36:40;100521.47;;;14.53;45.78
79527;BME280;68974;47.754;-3.364;2023-04-12T09:39:06;100520.56;;;14.80;45.01
79527;BME280;68974;47.754;-3.364;2023-04-12T09:41:32;100531.19;;;15.17;44.68
79527;BME280;68974;47.754;-3.364;2023-04-12T09:43:58;100515.84;;;14.80;44.37
79527;BME280;68974;47.754;-3.364;2023-04-12T09:46:23;100518.41;;;14.99;45.09
79527;BME280;68974;47.754;-3.364;2023-04-12T09:48:50;100517.03;;;15.49;45.33
79527;BME280;68974;47.754;-3.364;2023-04-12T09:51:27;100524.31;;;15.68;42.56
79527;BME280;68974;47.754;-3.364;2023-04-12T09:54:01;100530.78;;;16.02;41.47
79527;BME280;68974;47.754;-3.364;2023-04-12T09:56:30;100523.31;;;16.29;42.48
79527;BME280;68974;47.754;-3.364;2023-04-12T09:59:03;100519.91;;;16.40;39.76
79527;BME280;68974;47.754;-3.364;2023-04-12T10:01:34;100528.56;;;16.82;39.02
79527;BME280;68974;47.754;-3.364;2023-04-12T10:04:01;100525.28;;;16.45;37.60
79527;BME280;68974;47.754;-3.364;2023-04-12T10:06:27;100536.03;;;16.30;39.45
79527;BME280;68974;47.754;-3.364;2023-04-12T10:08:53;100523.69;;;15.79;39.13
79527;BME280;68974;47.754;-3.364;2023-04-12T10:11:19;100543.53;;;15.42;40.08
79527;BME280;68974;47.754;-3.364;2023-04-12T10:13:45;100541.72;;;15.37;38.76
79527;BME280;68974;47.754;-3.364;2023-04-12T10:16:12;100524.63;;;16.31;39.69
79527;BME280;68974;47.754;-3.364;2023-04-12T10:18:38;100542.63;;;15.86;40.53
79527;BME280;68974;47.754;-3.364;2023-04-12T10:21:04;100537.56;;;14.51;42.51
79527;BME280;68974;47.754;-3.364;2023-04-12T10:23:31;100544.69;;;13.34;45.33
79527;BME280;68974;47.754;-3.364;2023-04-12T10:25:57;100562.31;;;12.31;51.04
79527;BME280;68974;47.754;-3.364;2023-04-12T10:28:24;100556.00;;;12.49;57.62
79527;BME280;68974;47.754;-3.364;2023-04-12T10:30:49;100548.50;;;13.93;57.74
79527;BME280;68974;47.754;-3.364;2023-04-12T10:33:23;100540.34;;;15.26;53.23
79527;BME280;68974;47.754;-3.364;2023-04-12T10:36:01;100540.03;;;15.98;48.46
79527;BME280;68974;47.754;-3.364;2023-04-12T10:38:28;100535.69;;;15.57;46.86
79527;BME280;68974;47.754;-3.364;2023-04-12T10:41:15;100536.28;;;15.54;44.16
79527;BME280;68974;47.754;-3.364;2023-04-12T10:43:42;100539.09;;;16.11;41.14
79527;BME280;68974;47.754;-3.364;2023-04-12T10:49:11;100534.28;;;16.60;42.09
79527;BME280;68974;47.754;-3.364;2023-04-12T10:51:37;100533.28;;;16.99;40.52
79527;BME280;68974;47.754;-3.364;2023-04-12T10:58:57;100546.28;;;17.32;37.49
79527;BME280;68974;47.754;-3.364;2023-04-12T11:01:27;100545.00;;;15.70;41.58
79527;BME280;68974;47.754;-3.364;2023-04-12T11:04:19;100542.78;;;14.97;45.40
79527;BME280;68974;47.754;-3.364;2023-04-12T11:07:09;100555.97;;;15.84;44.68
79527;BME280;68974;47.754;-3.364;2023-04-12T11:14:50;100547.16;;;16.99;40.96
79527;BME280;68974;47.754;-3.364;2023-04-12T11:19:43;100536.88;;;16.82;39.83
79527;BME280;68974;47.754;-3.364;2023-04-12T11:22:14;100537.59;;;17.43;37.27
79527;BME280;68974;47.754;-3.364;2023-04-12T11:24:50;100522.38;;;17.49;34.60
79527;BME280;68974;47.754;-3.364;2023-04-12T11:27:18;100546.88;;;17.47;37.28
79527;BME280;68974;47.754;-3.364;2023-04-12T11:29:47;100544.28;;;17.59;36.16
79527;BME280;68974;47.754;-3.364;2023-04-12T11:32:13;100561.56;;;18.02;36.65
79527;BME280;68974;47.754;-3.364;2023-04-12T11:34:39;100554.28;;;17.25;36.88
79527;BME280;68974;47.754;-3.364;2023-04-12T11:37:06;100543.69;;;17.74;37.61
79527;BME280;68974;47.754;-3.364;2023-04-12T11:39:33;100544.78;;;18.40;39.27
79527;BME280;68974;47.754;-3.364;2023-04-12T11:41:59;100533.75;;;18.73;35.14
79527;BME280;68974;47.754;-3.364;2023-04-12T11:44:27;100548.81;;;18.72;35.54
79527;BME280;68974;47.754;-3.364;2023-04-12T11:46:53;100549.66;;;18.23;36.06
79527;BME280;68974;47.754;-3.364;2023-04-12T11:49:21;100561.44;;;18.70;36.94
79527;BME280;68974;47.754;-3.364;2023-04-12T11:51:47;100559.81;;;17.89;38.23
79527;BME280;68974;47.754;-3.364;2023-04-12T11:54:13;100561.16;;;17.83;37.25
79527;BME280;68974;47.754;-3.364;2023-04-12T11:56:39;100535.34;;;18.12;37.40
79527;BME280;68974;47.754;-3.364;2023-04-12T11:59:05;100549.00;;;17.96;35.57
79527;BME280;68974;47.754;-3.364;2023-04-12T12:01:33;100547.91;;;17.80;37.64
79527;BME280;68974;47.754;-3.364;2023-04-12T12:04:00;100552.47;;;19.06;35.71
79527;BME280;68974;47.754;-3.364;2023-04-12T12:06:25;100559.66;;;18.44;36.03
79527;BME280;68974;47.754;-3.364;2023-04-12T12:08:52;100551.47;;;18.18;35.66
79527;BME280;68974;47.754;-3.364;2023-04-12T12:11:21;100530.16;;;18.73;34.66
79527;BME280;68974;47.754;-3.364;2023-04-12T12:13:54;100531.84;;;18.44;35.67
79527;BME280;68974;47.754;-3.364;2023-04-12T12:16:24;100543.53;;;18.58;34.26
79527;BME280;68974;47.754;-3.364;2023-04-12T12:18:51;100529.81;;;18.03;34.61
79527;BME280;68974;47.754;-3.364;2023-04-12T12:21:16;100552.41;;;18.02;35.37
79527;BME280;68974;47.754;-3.364;2023-04-12T12:23:43;100550.47;;;18.44;35.48
79527;BME280;68974;47.754;-3.364;2023-04-12T12:26:08;100545.44;;;17.87;36.58
79527;BME280;68974;47.754;-3.364;2023-04-12T12:28:38;100549.72;;;18.64;36.39
79527;BME280;68974;47.754;-3.364;2023-04-12T12:31:09;100555.75;;;18.66;35.27
79527;BME280;68974;47.754;-3.364;2023-04-12T12:33:38;100541.09;;;19.43;34.25
79527;BME280;68974;47.754;-3.364;2023-04-12T12:36:05;100558.91;;;20.24;34.63
79527;BME280;68974;47.754;-3.364;2023-04-12T12:38:38;100564.44;;;18.85;35.08
79527;BME280;68974;47.754;-3.364;2023-04-12T12:41:21;100553.41;;;16.61;39.08
79527;BME280;68974;47.754;-3.364;2023-04-12T12:43:47;100552.84;;;17.19;38.34
79527;BME280;68974;47.754;-3.364;2023-04-12T12:46:13;100542.09;;;17.64;35.96
79527;BME280;68974;47.754;-3.364;2023-04-12T12:48:40;100545.97;;;18.60;34.29
79527;BME280;68974;47.754;-3.364;2023-04-12T12:51:09;100552.19;;;18.98;34.34
79527;BME280;68974;47.754;-3.364;2023-04-12T12:53:40;100554.38;;;18.72;31.87
79527;BME280;68974;47.754;-3.364;2023-04-12T12:56:07;100550.84;;;19.04;31.97
79527;BME280;68974;47.754;-3.364;2023-04-12T12:58:33;100568.91;;;18.28;32.51
79527;BME280;68974;47.754;-3.364;2023-04-12T13:00:59;100543.56;;;18.00;34.35
79527;BME280;68974;47.754;-3.364;2023-04-12T13:03:24;100541.47;;;17.97;33.66
79527;BME280;68974;47.754;-3.364;2023-04-12T13:05:50;100540.97;;;17.57;35.58
79527;BME280;68974;47.754;-3.364;2023-04-12T13:08:16;100547.69;;;17.94;34.54
79527;BME280;68974;47.754;-3.364;2023-04-12T13:10:41;100556.81;;;17.65;35.13
79527;BME280;68974;47.754;-3.364;2023-04-12T13:13:07;100573.75;;;17.17;37.53